Solana — WCY5602 — position and weather

sailwx.info

Track history (hours):
 
Tides and Currents Weather Stations Pressure Air Temp Water Temp Dewpoint Dewpoint Depression Visibility Wind Speed Wind Dir Waves Ship Positions

Solana

Owner: TAURUS MARINE, SAN FRANCISCO, CA. More information available from US FCC via Universal Licensing System and Coast Guard Vessel Documentation Center.

Last reported at 2017-Apr-29 21:31 UTC. Time now 2017-Apr-29 21:32 UTC.
Position N 37°46' W 122°23'.

Length 21 m; draft 3 m.

Type: Ship (hazmat cat A). MMSI: 366969740.

Date/timePositionNaut miles runAvg speedWind from/ knotsBaromVisibWave heightAir tempDewpointWater temp
2017-Apr-29 21:31N 37°46' W 122°23'0 0.0
2017-Apr-29 21:01N 37°46' W 122°23'0 0.1
2017-Apr-29 20:31N 37°46' W 122°23'0 0.3
2017-Apr-29 20:01N 37°47' W 122°23'0 0.3
2017-Apr-29 19:31N 37°46' W 122°23'0 0.0
2017-Apr-29 19:01N 37°46' W 122°23'0 0.0
2017-Apr-29 01:53N 37°46' W 122°23'1 1.5
2017-Apr-29 01:30N 37°47' W 122°23'4 7.0
2017-Apr-29 01:00N 37°48' W 122°18'3 5.6
2017-Apr-29 00:30N 37°47' W 122°15'0 0.7
2017-Apr-29 00:00N 37°46' W 122°14'2 3.6
2017-Apr-28 23:30N 37°47' W 122°16'3 5.4
2017-Apr-28 23:00N 37°48' W 122°20'2 4.4
2017-Apr-28 22:30N 37°48' W 122°23'0 0.4
2017-Apr-28 22:00N 37°48' W 122°23'0 0.1
2017-Apr-28 21:30N 37°48' W 122°23'0 0.0
2017-Apr-28 21:00N 37°48' W 122°23'0 0.0
2017-Apr-28 20:30N 37°48' W 122°23'0 0.1
2017-Apr-28 20:00N 37°48' W 122°23'0 0.4
2017-Apr-28 19:30N 37°48' W 122°23'1 2.5
2017-Apr-28 19:00N 37°46' W 122°23'0 0.0
2017-Apr-28 18:00N 37°46' W 122°23'0 0.0
2017-Apr-28 12:37N 37°46' W 122°23'0 0.0
2017-Apr-28 12:30N 37°46' W 122°23'0 0.0
2017-Apr-28 12:00N 37°46' W 122°23'0 0.0
2017-Apr-28 11:30N 37°46' W 122°23'0 0.0
2017-Apr-28 11:00N 37°46' W 122°23'0 0.0
2017-Apr-27 19:39N 37°46' W 122°23'0 0.0
2017-Apr-27 19:30N 37°46' W 122°23'3 6.6
2017-Apr-27 19:00N 37°46' W 122°19'1 1.2
2017-Apr-27 18:30N 37°47' W 122°18'2 3.0
2017-Apr-27 18:00N 37°47' W 122°20'2 3.6
2017-Apr-27 17:30N 37°48' W 122°18'1 1.3
2017-Apr-27 17:00N 37°48' W 122°17'0 0.0
2017-Apr-27 16:30N 37°48' W 122°17'0 0.0
2017-Apr-27 16:00N 37°48' W 122°17'0 0.0
2017-Apr-27 15:30N 37°48' W 122°17'0 0.0
2017-Apr-27 15:01N 37°48' W 122°17'2 2.4
2017-Apr-27 14:00N 37°47' W 122°20'2 3.4
2017-Apr-27 13:30N 37°47' W 122°18'0 0.4
2017-Apr-27 13:01N 37°47' W 122°18'3 6.6
2017-Apr-27 12:30N 37°47' W 122°23'0 0.1
2017-Apr-27 03:07N 37°46' W 122°23'0 0.0
2017-Apr-27 03:00N 37°46' W 122°23'3 6.2
2017-Apr-27 02:30N 37°50' W 122°23'4 8.8
2017-Apr-27 02:00N 37°54' W 122°25'5 8.9
2017-Apr-27 01:29N 37°58' W 122°26'4 8.0
2017-Apr-27 00:57N 38°02' W 122°22'4 8.5
2017-Apr-27 00:27N 38°03' W 122°17'  
2017-Apr-23 23:41N 38°06' W 122°16'1 2.4
2017-Apr-23 23:23N 38°06' W 122°16'1 2.0
2017-Apr-23 22:53N 38°06' W 122°15'1 0.0
2017-Apr-22 17:02N 38°04' W 122°15'0 8.8
2017-Apr-22 17:00N 38°04' W 122°15'4 7.8
2017-Apr-22 16:30N 38°02' W 122°10'3 5.7
2017-Apr-22 15:59N 38°03' W 122°06'1 1.1
2017-Apr-22 15:30N 38°03' W 122°06'0 0.3
2017-Apr-22 15:00N 38°03' W 122°05'0 0.0
2017-Apr-22 14:30N 38°03' W 122°05'0 0.2
2017-Apr-22 13:30N 38°03' W 122°05'0 0.6
2017-Apr-22 12:57N 38°03' W 122°06'0 0.4
2017-Apr-22 12:15N 38°03' W 122°05'1 5.7
2017-Apr-22 11:59N 38°02' W 122°07'3 6.1
2017-Apr-22 11:30N 38°03' W 122°11'3 5.7
2017-Apr-22 11:00N 38°04' W 122°14'2 3.9
2017-Apr-22 10:30N 38°05' W 122°16'0 0.0
2017-Apr-21 19:43N 38°06' W 122°16'0 0.2
2017-Apr-21 18:33N 38°06' W 122°16'0 0.0
2017-Apr-21 18:30N 38°06' W 122°16'0 0.1
2017-Apr-21 17:59N 38°06' W 122°16'0 0.1
2017-Apr-21 17:30N 38°06' W 122°16'0 0.1
2017-Apr-21 16:58N 38°06' W 122°16'0 0.1
2017-Apr-21 16:28N 38°06' W 122°16'0 0.1
2017-Apr-21 16:00N 38°06' W 122°16'0 0.0
2017-Apr-21 15:30N 38°06' W 122°16'0 0.0
2017-Apr-21 14:59N 38°06' W 122°16'0 0.0
2017-Apr-21 14:21N 38°06' W 122°16'0 0.5
2017-Apr-21 13:30N 38°05' W 122°15'0 0.0
2017-Apr-21 01:28N 38°05' W 122°15'2 5.0
2017-Apr-21 01:00N 38°03' W 122°17'4 6.3
2017-Apr-21 00:26N 38°02' W 122°21'3 7.6
2017-Apr-21 00:00N 38°00' W 122°24'4 7.3
2017-Apr-20 23:30N 37°57' W 122°26'4 8.3
2017-Apr-20 23:00N 37°53' W 122°24'3 6.1
2017-Apr-20 22:30N 37°50' W 122°23'3 6.1
2017-Apr-20 22:00N 37°47' W 122°23'  
Track history (hours):
 
Tides and Currents Weather Stations Pressure Air Temp Water Temp Dewpoint Dewpoint Depression Visibility Wind Speed Wind Dir Waves Ship Positions

Solana

Owner: TAURUS MARINE, SAN FRANCISCO, CA. More information available from US FCC via Universal Licensing System and Coast Guard Vessel Documentation Center.

Last reported at 2017-Apr-29 21:31 UTC. Time now 2017-Apr-29 21:32 UTC.
Position N 37°46' W 122°23'.

Length 21 m; draft 3 m.

Type: Ship (hazmat cat A). MMSI: 366969740.

Date/timePositionNaut miles runAvg speedWind from/ knotsBaromVisibWave heightAir tempDewpointWater temp
2017-Apr-29 21:31N 37°46' W 122°23'0 0.0
2017-Apr-29 21:01N 37°46' W 122°23'0 0.1
2017-Apr-29 20:31N 37°46' W 122°23'0 0.3
2017-Apr-29 20:01N 37°47' W 122°23'0 0.3
2017-Apr-29 19:31N 37°46' W 122°23'0 0.0
2017-Apr-29 19:01N 37°46' W 122°23'0 0.0
2017-Apr-29 01:53N 37°46' W 122°23'1 1.5
2017-Apr-29 01:30N 37°47' W 122°23'4 7.0
2017-Apr-29 01:00N 37°48' W 122°18'3 5.6
2017-Apr-29 00:30N 37°47' W 122°15'0 0.7
2017-Apr-29 00:00N 37°46' W 122°14'2 3.6
2017-Apr-28 23:30N 37°47' W 122°16'3 5.4
2017-Apr-28 23:00N 37°48' W 122°20'2 4.4
2017-Apr-28 22:30N 37°48' W 122°23'0 0.4
2017-Apr-28 22:00N 37°48' W 122°23'0 0.1
2017-Apr-28 21:30N 37°48' W 122°23'0 0.0
2017-Apr-28 21:00N 37°48' W 122°23'0 0.0
2017-Apr-28 20:30N 37°48' W 122°23'0 0.1
2017-Apr-28 20:00N 37°48' W 122°23'0 0.4
2017-Apr-28 19:30N 37°48' W 122°23'1 2.5
2017-Apr-28 19:00N 37°46' W 122°23'0 0.0
2017-Apr-28 18:00N 37°46' W 122°23'0 0.0
2017-Apr-28 12:37N 37°46' W 122°23'0 0.0
2017-Apr-28 12:30N 37°46' W 122°23'0 0.0
2017-Apr-28 12:00N 37°46' W 122°23'0 0.0
2017-Apr-28 11:30N 37°46' W 122°23'0 0.0
2017-Apr-28 11:00N 37°46' W 122°23'0 0.0
2017-Apr-27 19:39N 37°46' W 122°23'0 0.0
2017-Apr-27 19:30N 37°46' W 122°23'3 6.6
2017-Apr-27 19:00N 37°46' W 122°19'1 1.2
2017-Apr-27 18:30N 37°47' W 122°18'2 3.0
2017-Apr-27 18:00N 37°47' W 122°20'2 3.6
2017-Apr-27 17:30N 37°48' W 122°18'1 1.3
2017-Apr-27 17:00N 37°48' W 122°17'0 0.0
2017-Apr-27 16:30N 37°48' W 122°17'0 0.0
2017-Apr-27 16:00N 37°48' W 122°17'0 0.0
2017-Apr-27 15:30N 37°48' W 122°17'0 0.0
2017-Apr-27 15:01N 37°48' W 122°17'2 2.4
2017-Apr-27 14:00N 37°47' W 122°20'2 3.4
2017-Apr-27 13:30N 37°47' W 122°18'0 0.4
2017-Apr-27 13:01N 37°47' W 122°18'3 6.6
2017-Apr-27 12:30N 37°47' W 122°23'0 0.1
2017-Apr-27 03:07N 37°46' W 122°23'0 0.0
2017-Apr-27 03:00N 37°46' W 122°23'3 6.2
2017-Apr-27 02:30N 37°50' W 122°23'4 8.8
2017-Apr-27 02:00N 37°54' W 122°25'5 8.9
2017-Apr-27 01:29N 37°58' W 122°26'4 8.0
2017-Apr-27 00:57N 38°02' W 122°22'4 8.5
2017-Apr-27 00:27N 38°03' W 122°17'  
2017-Apr-23 23:41N 38°06' W 122°16'1 2.4
2017-Apr-23 23:23N 38°06' W 122°16'1 2.0
2017-Apr-23 22:53N 38°06' W 122°15'1 0.0
2017-Apr-22 17:02N 38°04' W 122°15'0 8.8
2017-Apr-22 17:00N 38°04' W 122°15'4 7.8
2017-Apr-22 16:30N 38°02' W 122°10'3 5.7
2017-Apr-22 15:59N 38°03' W 122°06'1 1.1
2017-Apr-22 15:30N 38°03' W 122°06'0 0.3
2017-Apr-22 15:00N 38°03' W 122°05'0 0.0
2017-Apr-22 14:30N 38°03' W 122°05'0 0.2
2017-Apr-22 13:30N 38°03' W 122°05'0 0.6
2017-Apr-22 12:57N 38°03' W 122°06'0 0.4
2017-Apr-22 12:15N 38°03' W 122°05'1 5.7
2017-Apr-22 11:59N 38°02' W 122°07'3 6.1
2017-Apr-22 11:30N 38°03' W 122°11'3 5.7
2017-Apr-22 11:00N 38°04' W 122°14'2 3.9
2017-Apr-22 10:30N 38°05' W 122°16'0 0.0
2017-Apr-21 19:43N 38°06' W 122°16'0 0.2
2017-Apr-21 18:33N 38°06' W 122°16'0 0.0
2017-Apr-21 18:30N 38°06' W 122°16'0 0.1
2017-Apr-21 17:59N 38°06' W 122°16'0 0.1
2017-Apr-21 17:30N 38°06' W 122°16'0 0.1
2017-Apr-21 16:58N 38°06' W 122°16'0 0.1
2017-Apr-21 16:28N 38°06' W 122°16'0 0.1
2017-Apr-21 16:00N 38°06' W 122°16'0 0.0
2017-Apr-21 15:30N 38°06' W 122°16'0 0.0
2017-Apr-21 14:59N 38°06' W 122°16'0 0.0
2017-Apr-21 14:21N 38°06' W 122°16'0 0.5
2017-Apr-21 13:30N 38°05' W 122°15'0 0.0
2017-Apr-21 01:28N 38°05' W 122°15'2 5.0
2017-Apr-21 01:00N 38°03' W 122°17'4 6.3
2017-Apr-21 00:26N 38°02' W 122°21'3 7.6
2017-Apr-21 00:00N 38°00' W 122°24'4 7.3
2017-Apr-20 23:30N 37°57' W 122°26'4 8.3
2017-Apr-20 23:00N 37°53' W 122°24'3 6.1
2017-Apr-20 22:30N 37°50' W 122°23'3 6.1
2017-Apr-20 22:00N 37°47' W 122°23'  

Dump ship's entire track history